createdAt,value
2019-03-03T11:36:52.610Z,7.20
2019-03-03T11:39:25.012Z,7.40
2019-03-03T11:41:57.055Z,7.50
2019-03-03T11:44:29.127Z,7.60
2019-03-03T11:47:10.205Z,7.70
2019-03-03T11:49:45.121Z,7.80
2019-03-03T11:52:23.005Z,7.90
2019-03-03T11:54:57.936Z,8.00
2019-03-03T11:57:33.090Z,8.20
2019-03-03T12:00:12.864Z,8.50
2019-03-03T12:02:54.263Z,8.60
2019-03-03T12:05:29.164Z,8.50
2019-03-03T12:08:04.274Z,8.60
2019-03-03T12:10:42.373Z,8.60
2019-03-03T13:26:20.281Z,8.80
2019-03-03T13:46:29.124Z,8.40
2019-03-03T13:48:59.725Z,8.50
2019-03-03T15:00:35.836Z,9.10
2019-03-03T15:15:24.811Z,8.90
2019-03-03T15:28:07.012Z,8.90
2019-03-03T15:34:56.334Z,8.60
2019-03-03T15:44:32.916Z,8.40
2019-03-03T15:50:00.798Z,8.30
2019-03-03T15:52:34.249Z,8.20
2019-03-03T15:55:12.893Z,8.20
2019-03-03T15:57:43.368Z,8.10
2019-03-03T16:00:30.450Z,8.10
2019-03-03T16:03:18.255Z,8.10
2019-03-03T16:06:00.805Z,8.10
2019-03-03T16:08:36.414Z,8.10
2019-03-03T16:11:07.408Z,8.10
2019-03-03T16:13:38.084Z,8.10
2019-03-03T16:16:11.438Z,8.00
2019-03-03T16:18:42.124Z,7.90
2019-03-03T16:21:14.485Z,7.90
2019-03-03T16:23:50.626Z,7.90
2019-03-03T16:26:24.575Z,7.90
2019-03-03T16:28:55.145Z,7.80
2019-03-03T16:31:25.742Z,7.80
2019-03-03T16:33:56.804Z,7.80
2019-03-03T16:36:27.451Z,7.70
2019-03-03T16:38:58.689Z,7.70
2019-03-03T16:41:29.525Z,7.70
2019-03-03T16:44:01.844Z,7.70
2019-03-03T16:46:46.111Z,7.70
2019-03-03T16:49:21.121Z,7.70
2019-03-03T16:52:03.155Z,7.70
2019-03-03T16:54:35.391Z,7.70
2019-03-03T16:57:23.919Z,7.70
2019-03-03T16:59:51.945Z,7.60
2019-03-03T17:02:22.549Z,7.60
2019-03-03T17:04:53.636Z,7.60
2019-03-03T17:17:12.595Z,7.40
2019-03-03T17:19:43.769Z,7.40
2019-03-03T17:22:18.828Z,7.40
2019-03-03T17:24:49.716Z,7.40
2019-03-03T17:30:12.640Z,7.30
2019-03-03T17:32:46.191Z,7.30
2019-03-03T17:35:21.461Z,7.40
2019-03-03T17:37:52.174Z,7.40
2019-03-03T17:40:38.901Z,7.50
2019-03-03T17:43:13.271Z,7.50
2019-03-03T17:46:12.222Z,7.40
2019-03-03T17:48:36.769Z,7.50
2019-03-03T17:51:12.514Z,7.40
2019-03-03T17:53:47.973Z,7.50
2019-03-03T17:56:21.641Z,7.50
2019-03-03T17:59:09.876Z,7.50
2019-03-03T18:01:33.933Z,7.50
2019-03-03T18:04:06.820Z,7.40
2019-03-03T18:10:20.261Z,7.50
2019-03-03T18:13:08.774Z,7.50
2019-03-03T18:16:36.082Z,7.60
2019-03-03T18:19:20.490Z,7.60
2019-03-03T18:21:57.187Z,7.30
2019-03-03T18:24:35.292Z,7.30
2019-03-03T18:27:10.282Z,7.30
2019-03-03T18:30:12.497Z,7.40
2019-03-03T19:06:29.614Z,7.80
2019-03-03T19:13:26.149Z,7.90
2019-03-03T20:06:27.091Z,7.90
2019-03-03T20:12:15.909Z,7.90
2019-03-03T20:18:01.964Z,7.90
2019-03-03T20:24:01.899Z,7.90
2019-03-03T20:32:56.026Z,8.00
2019-03-03T20:35:30.552Z,8.00
2019-03-03T20:41:05.339Z,8.10
2019-03-03T20:43:36.267Z,8.10
2019-03-03T20:46:36.960Z,8.10
2019-03-03T20:49:42.343Z,8.10
2019-03-03T20:52:04.710Z,8.20
2019-03-03T21:00:54.289Z,8.10
2019-03-03T21:03:44.322Z,8.10
2019-03-03T21:06:22.887Z,8.10
2019-03-03T21:09:20.697Z,8.10
2019-03-03T21:12:06.511Z,8.00
2019-03-03T21:17:55.850Z,7.90
2019-03-03T21:20:42.540Z,8.00
2019-03-03T21:23:28.715Z,8.00
2019-03-03T21:28:55.337Z,8.10
2019-03-03T21:31:33.871Z,8.00
2019-03-03T21:37:29.598Z,8.00
2019-03-03T21:40:21.850Z,7.90
2019-03-03T21:42:56.698Z,7.80
2019-03-03T21:48:38.980Z,7.80
2019-03-03T21:51:14.301Z,7.80
2019-03-03T21:53:54.669Z,8.00
2019-03-03T21:59:56.924Z,8.10
2019-03-03T22:02:31.156Z,8.20
2019-03-03T22:08:50.459Z,8.20
2019-03-03T22:11:21.432Z,8.20
2019-03-03T22:13:58.201Z,8.10
2019-03-03T22:16:33.491Z,8.00
2019-03-03T22:19:08.525Z,8.00
2019-03-03T22:21:47.535Z,7.90
2019-03-03T22:24:29.607Z,7.90
2019-03-03T22:27:02.081Z,7.80
2019-03-03T22:29:40.400Z,7.90
2019-03-03T22:32:17.050Z,7.80
2019-03-03T22:37:47.785Z,7.80
2019-03-03T22:40:33.645Z,7.70
2019-03-03T22:47:09.776Z,7.70
2019-03-03T23:06:45.629Z,7.70
2019-03-03T23:13:21.809Z,7.80
2019-03-03T23:19:23.541Z,7.90
2019-03-03T23:22:55.074Z,7.90
2019-03-03T23:25:52.698Z,7.80
2019-03-03T23:28:24.073Z,7.90
2019-03-03T23:31:10.716Z,7.90
2019-03-03T23:33:57.189Z,7.90
2019-03-03T23:36:55.104Z,7.90
2019-03-03T23:49:24.354Z,8.10
2019-03-03T23:52:04.120Z,8.00
2019-03-03T23:54:36.497Z,8.10
